sensor_id;sensor_type;location;lat;lon;timestamp;P1;durP1;ratioP1;P2;durP2;ratioP2
22490;SDS011;11412;50.802;4.350;2022-08-01T00:01:53;3.67;;;1.25;;
22490;SDS011;11412;50.802;4.350;2022-08-01T00:04:18;2.88;;;1.33;;
22490;SDS011;11412;50.802;4.350;2022-08-01T00:06:44;3.30;;;1.17;;
22490;SDS011;11412;50.802;4.350;2022-08-01T00:09:10;2.75;;;1.08;;
22490;SDS011;11412;50.802;4.350;2022-08-01T00:11:35;1.50;;;1.00;;
22490;SDS011;11412;50.802;4.350;2022-08-01T00:14:01;2.15;;;1.25;;
22490;SDS011;11412;50.802;4.350;2022-08-01T00:16:27;2.20;;;1.40;;
22490;SDS011;11412;50.802;4.350;2022-08-01T00:18:52;3.28;;;1.40;;
22490;SDS011;11412;50.802;4.350;2022-08-01T00:21:19;3.20;;;1.40;;
22490;SDS011;11412;50.802;4.350;2022-08-01T00:23:44;2.30;;;1.23;;
22490;SDS011;11412;50.802;4.350;2022-08-01T00:26:12;2.42;;;1.15;;
22490;SDS011;11412;50.802;4.350;2022-08-01T00:28:38;3.45;;;2.10;;
22490;SDS011;11412;50.802;4.350;2022-08-01T00:31:05;1.77;;;1.25;;
22490;SDS011;11412;50.802;4.350;2022-08-01T00:33:30;1.70;;;1.48;;
22490;SDS011;11412;50.802;4.350;2022-08-01T00:35:56;1.23;;;1.10;;
22490;SDS011;11412;50.802;4.350;2022-08-01T00:38:22;5.45;;;1.83;;
22490;SDS011;11412;50.802;4.350;2022-08-01T00:40:48;3.15;;;2.08;;
22490;SDS011;11412;50.802;4.350;2022-08-01T00:43:14;2.75;;;1.83;;
22490;SDS011;11412;50.802;4.350;2022-08-01T00:45:40;4.18;;;1.83;;
22490;SDS011;11412;50.802;4.350;2022-08-01T00:48:06;3.38;;;1.60;;
22490;SDS011;11412;50.802;4.350;2022-08-01T00:50:31;4.82;;;1.92;;
22490;SDS011;11412;50.802;4.350;2022-08-01T00:52:57;3.40;;;2.13;;
22490;SDS011;11412;50.802;4.350;2022-08-01T00:55:24;2.25;;;1.60;;
22490;SDS011;11412;50.802;4.350;2022-08-01T00:57:49;3.63;;;1.55;;
22490;SDS011;11412;50.802;4.350;2022-08-01T01:00:15;1.98;;;1.30;;
22490;SDS011;11412;50.802;4.350;2022-08-01T01:02:41;3.60;;;1.50;;
22490;SDS011;11412;50.802;4.350;2022-08-01T01:05:07;4.07;;;1.75;;
22490;SDS011;11412;50.802;4.350;2022-08-01T01:10:40;3.50;;;1.73;;
22490;SDS011;11412;50.802;4.350;2022-08-01T01:13:16;2.42;;;1.50;;
22490;SDS011;11412;50.802;4.350;2022-08-01T01:15:54;3.47;;;1.50;;
22490;SDS011;11412;50.802;4.350;2022-08-01T01:18:24;3.63;;;1.70;;
22490;SDS011;11412;50.802;4.350;2022-08-01T01:23:57;5.03;;;1.88;;
22490;SDS011;11412;50.802;4.350;2022-08-01T01:26:38;1.77;;;1.48;;
22490;SDS011;11412;50.802;4.350;2022-08-01T01:29:16;2.90;;;1.67;;
22490;SDS011;11412;50.802;4.350;2022-08-01T01:34:35;3.65;;;1.80;;
22490;SDS011;11412;50.802;4.350;2022-08-01T01:37:08;6.20;;;2.40;;
22490;SDS011;11412;50.802;4.350;2022-08-01T01:39:37;2.38;;;2.17;;
22490;SDS011;11412;50.802;4.350;2022-08-01T01:42:05;10.23;;;4.55;;
22490;SDS011;11412;50.802;4.350;2022-08-01T01:44:32;11.15;;;4.72;;
22490;SDS011;11412;50.802;4.350;2022-08-01T01:47:01;7.20;;;4.10;;
22490;SDS011;11412;50.802;4.350;2022-08-01T01:49:27;8.25;;;4.43;;
22490;SDS011;11412;50.802;4.350;2022-08-01T01:51:54;9.70;;;5.43;;
22490;SDS011;11412;50.802;4.350;2022-08-01T01:54:22;10.73;;;5.90;;
22490;SDS011;11412;50.802;4.350;2022-08-01T01:56:49;8.65;;;4.80;;
22490;SDS011;11412;50.802;4.350;2022-08-01T01:59:18;10.38;;;5.30;;
22490;SDS011;11412;50.802;4.350;2022-08-01T02:01:46;9.13;;;4.95;;
22490;SDS011;11412;50.802;4.350;2022-08-01T02:04:14;11.90;;;5.15;;
22490;SDS011;11412;50.802;4.350;2022-08-01T02:06:42;7.55;;;4.63;;
22490;SDS011;11412;50.802;4.350;2022-08-01T02:09:10;10.95;;;4.97;;
22490;SDS011;11412;50.802;4.350;2022-08-01T02:11:38;10.98;;;5.22;;
22490;SDS011;11412;50.802;4.350;2022-08-01T02:14:06;8.25;;;5.25;;
22490;SDS011;11412;50.802;4.350;2022-08-01T02:16:35;12.43;;;5.15;;
22490;SDS011;11412;50.802;4.350;2022-08-01T02:19:04;10.93;;;5.60;;
22490;SDS011;11412;50.802;4.350;2022-08-01T02:21:30;13.50;;;6.63;;
22490;SDS011;11412;50.802;4.350;2022-08-01T02:24:48;10.63;;;5.90;;
22490;SDS011;11412;50.802;4.350;2022-08-01T02:27:06;12.90;;;6.35;;
22490;SDS011;11412;50.802;4.350;2022-08-01T02:29:45;8.85;;;5.90;;
22490;SDS011;11412;50.802;4.350;2022-08-01T02:32:23;11.55;;;6.78;;
22490;SDS011;11412;50.802;4.350;2022-08-01T02:34:58;10.73;;;6.95;;
22490;SDS011;11412;50.802;4.350;2022-08-01T02:37:26;13.52;;;7.38;;
22490;SDS011;11412;50.802;4.350;2022-08-01T02:39:56;13.18;;;6.60;;
22490;SDS011;11412;50.802;4.350;2022-08-01T02:42:23;13.57;;;6.90;;
22490;SDS011;11412;50.802;4.350;2022-08-01T02:44:51;11.43;;;6.70;;
22490;SDS011;11412;50.802;4.350;2022-08-01T02:47:19;12.40;;;6.93;;
22490;SDS011;11412;50.802;4.350;2022-08-01T02:49:46;11.82;;;7.25;;
22490;SDS011;11412;50.802;4.350;2022-08-01T02:52:15;10.25;;;6.00;;
22490;SDS011;11412;50.802;4.350;2022-08-01T02:54:47;11.60;;;6.53;;
22490;SDS011;11412;50.802;4.350;2022-08-01T02:57:16;12.88;;;6.95;;
22490;SDS011;11412;50.802;4.350;2022-08-01T02:59:43;10.82;;;6.75;;
22490;SDS011;11412;50.802;4.350;2022-08-01T03:02:11;12.18;;;6.68;;
22490;SDS011;11412;50.802;4.350;2022-08-01T03:04:39;11.65;;;6.82;;
22490;SDS011;11412;50.802;4.350;2022-08-01T03:07:07;9.88;;;6.07;;
22490;SDS011;11412;50.802;4.350;2022-08-01T03:09:36;14.68;;;6.30;;
22490;SDS011;11412;50.802;4.350;2022-08-01T03:12:04;10.93;;;5.80;;
22490;SDS011;11412;50.802;4.350;2022-08-01T03:14:35;11.80;;;6.32;;
22490;SDS011;11412;50.802;4.350;2022-08-01T03:17:03;9.73;;;5.78;;
22490;SDS011;11412;50.802;4.350;2022-08-01T03:19:30;9.70;;;5.43;;
22490;SDS011;11412;50.802;4.350;2022-08-01T03:21:58;9.70;;;5.22;;
22490;SDS011;11412;50.802;4.350;2022-08-01T03:24:25;8.15;;;5.50;;
22490;SDS011;11412;50.802;4.350;2022-08-01T03:26:51;9.55;;;5.63;;
22490;SDS011;11412;50.802;4.350;2022-08-01T03:29:19;11.75;;;6.25;;
22490;SDS011;11412;50.802;4.350;2022-08-01T03:31:49;18.98;;;8.40;;
22490;SDS011;11412;50.802;4.350;2022-08-01T03:34:16;14.95;;;8.23;;
22490;SDS011;11412;50.802;4.350;2022-08-01T03:36:46;14.40;;;7.38;;
22490;SDS011;11412;50.802;4.350;2022-08-01T03:39:14;18.33;;;7.80;;
22490;SDS011;11412;50.802;4.350;2022-08-01T03:41:43;13.80;;;6.97;;
22490;SDS011;11412;50.802;4.350;2022-08-01T03:44:16;13.65;;;8.15;;
22490;SDS011;11412;50.802;4.350;2022-08-01T03:46:46;11.95;;;7.35;;
22490;SDS011;11412;50.802;4.350;2022-08-01T03:49:17;15.75;;;7.68;;
22490;SDS011;11412;50.802;4.350;2022-08-01T03:51:47;12.73;;;6.88;;
22490;SDS011;11412;50.802;4.350;2022-08-01T03:54:14;20.52;;;7.25;;
22490;SDS011;11412;50.802;4.350;2022-08-01T03:56:45;15.93;;;7.65;;
22490;SDS011;11412;50.802;4.350;2022-08-01T03:59:14;16.13;;;7.60;;
22490;SDS011;11412;50.802;4.350;2022-08-01T04:01:41;16.45;;;7.45;;
22490;SDS011;11412;50.802;4.350;2022-08-01T04:04:08;13.23;;;7.63;;
22490;SDS011;11412;50.802;4.350;2022-08-01T04:06:37;13.95;;;7.30;;
22490;SDS011;11412;50.802;4.350;2022-08-01T04:09:03;11.68;;;7.35;;
22490;SDS011;11412;50.802;4.350;2022-08-01T04:11:29;13.07;;;6.63;;
22490;SDS011;11412;50.802;4.350;2022-08-01T04:13:55;14.82;;;7.72;;
22490;SDS011;11412;50.802;4.350;2022-08-01T04:16:22;17.52;;;8.30;;
22490;SDS011;11412;50.802;4.350;2022-08-01T04:18:48;13.43;;;8.30;;
22490;SDS011;11412;50.802;4.350;2022-08-01T04:21:13;12.88;;;8.50;;
22490;SDS011;11412;50.802;4.350;2022-08-01T04:23:43;13.52;;;8.68;;
22490;SDS011;11412;50.802;4.350;2022-08-01T04:26:11;14.27;;;8.43;;
22490;SDS011;11412;50.802;4.350;2022-08-01T04:28:39;13.95;;;8.82;;
22490;SDS011;11412;50.802;4.350;2022-08-01T04:31:07;15.57;;;8.85;;
22490;SDS011;11412;50.802;4.350;2022-08-01T04:33:38;11.73;;;8.57;;
22490;SDS011;11412;50.802;4.350;2022-08-01T04:36:08;12.75;;;8.73;;
22490;SDS011;11412;50.802;4.350;2022-08-01T04:38:37;15.73;;;9.68;;
22490;SDS011;11412;50.802;4.350;2022-08-01T04:41:05;12.55;;;8.30;;
22490;SDS011;11412;50.802;4.350;2022-08-01T04:43:32;10.50;;;8.05;;
22490;SDS011;11412;50.802;4.350;2022-08-01T04:45:58;13.80;;;8.55;;
22490;SDS011;11412;50.802;4.350;2022-08-01T04:48:28;12.30;;;9.35;;
22490;SDS011;11412;50.802;4.350;2022-08-01T04:50:56;13.05;;;8.25;;
22490;SDS011;11412;50.802;4.350;2022-08-01T04:53:22;12.65;;;9.10;;
22490;SDS011;11412;50.802;4.350;2022-08-01T04:55:47;11.65;;;8.25;;
22490;SDS011;11412;50.802;4.350;2022-08-01T04:58:13;11.45;;;7.90;;
22490;SDS011;11412;50.802;4.350;2022-08-01T05:00:40;13.85;;;9.35;;
22490;SDS011;11412;50.802;4.350;2022-08-01T05:03:06;11.57;;;9.02;;
22490;SDS011;11412;50.802;4.350;2022-08-01T05:05:31;20.20;;;10.40;;
22490;SDS011;11412;50.802;4.350;2022-08-01T05:07:57;15.88;;;10.77;;
22490;SDS011;11412;50.802;4.350;2022-08-01T05:10:23;16.77;;;11.15;;
22490;SDS011;11412;50.802;4.350;2022-08-01T05:12:48;17.17;;;10.65;;
22490;SDS011;11412;50.802;4.350;2022-08-01T05:15:14;15.27;;;11.32;;
22490;SDS011;11412;50.802;4.350;2022-08-01T05:17:41;20.20;;;11.85;;
22490;SDS011;11412;50.802;4.350;2022-08-01T05:20:10;18.58;;;11.07;;
22490;SDS011;11412;50.802;4.350;2022-08-01T05:22:37;17.27;;;11.63;;
22490;SDS011;11412;50.802;4.350;2022-08-01T05:25:03;20.05;;;12.27;;
22490;SDS011;11412;50.802;4.350;2022-08-01T05:27:33;18.02;;;11.00;;
22490;SDS011;11412;50.802;4.350;2022-08-01T05:30:03;16.67;;;10.90;;
22490;SDS011;11412;50.802;4.350;2022-08-01T05:32:29;15.02;;;11.45;;
22490;SDS011;11412;50.802;4.350;2022-08-01T05:34:56;18.95;;;10.55;;
22490;SDS011;11412;50.802;4.350;2022-08-01T05:37:22;14.30;;;10.00;;
22490;SDS011;11412;50.802;4.350;2022-08-01T05:39:48;17.25;;;10.40;;
22490;SDS011;11412;50.802;4.350;2022-08-01T05:42:13;16.58;;;10.73;;
22490;SDS011;11412;50.802;4.350;2022-08-01T05:44:39;13.60;;;10.38;;
22490;SDS011;11412;50.802;4.350;2022-08-01T05:47:05;15.25;;;10.02;;
22490;SDS011;11412;50.802;4.350;2022-08-01T05:49:30;15.05;;;10.10;;
22490;SDS011;11412;50.802;4.350;2022-08-01T05:51:56;18.33;;;10.90;;
22490;SDS011;11412;50.802;4.350;2022-08-01T05:54:21;12.07;;;9.68;;
22490;SDS011;11412;50.802;4.350;2022-08-01T05:56:47;15.85;;;9.15;;
22490;SDS011;11412;50.802;4.350;2022-08-01T05:59:13;10.07;;;8.25;;
22490;SDS011;11412;50.802;4.350;2022-08-01T06:01:39;11.07;;;8.52;;
22490;SDS011;11412;50.802;4.350;2022-08-01T06:04:04;10.68;;;7.82;;
22490;SDS011;11412;50.802;4.350;2022-08-01T06:06:30;9.32;;;7.35;;
22490;SDS011;11412;50.802;4.350;2022-08-01T06:08:55;10.38;;;7.50;;
22490;SDS011;11412;50.802;4.350;2022-08-01T06:11:21;10.10;;;7.03;;
22490;SDS011;11412;50.802;4.350;2022-08-01T06:13:47;7.45;;;6.63;;
22490;SDS011;11412;50.802;4.350;2022-08-01T06:16:12;9.75;;;6.45;;
22490;SDS011;11412;50.802;4.350;2022-08-01T06:18:38;9.00;;;6.45;;
22490;SDS011;11412;50.802;4.350;2022-08-01T06:21:04;6.30;;;5.70;;
22490;SDS011;11412;50.802;4.350;2022-08-01T06:23:30;7.35;;;6.55;;
22490;SDS011;11412;50.802;4.350;2022-08-01T06:25:56;7.35;;;6.10;;
22490;SDS011;11412;50.802;4.350;2022-08-01T06:28:23;7.88;;;5.53;;
22490;SDS011;11412;50.802;4.350;2022-08-01T06:30:49;7.78;;;6.53;;
22490;SDS011;11412;50.802;4.350;2022-08-01T06:33:14;7.38;;;5.38;;
22490;SDS011;11412;50.802;4.350;2022-08-01T06:35:41;9.80;;;5.60;;
22490;SDS011;11412;50.802;4.350;2022-08-01T06:38:06;7.72;;;4.60;;
22490;SDS011;11412;50.802;4.350;2022-08-01T06:40:32;5.70;;;5.00;;
22490;SDS011;11412;50.802;4.350;2022-08-01T06:42:58;5.20;;;4.60;;
22490;SDS011;11412;50.802;4.350;2022-08-01T06:45:23;8.85;;;5.65;;
22490;SDS011;11412;50.802;4.350;2022-08-01T06:47:50;4.93;;;4.53;;
22490;SDS011;11412;50.802;4.350;2022-08-01T06:50:16;6.38;;;4.63;;
22490;SDS011;11412;50.802;4.350;2022-08-01T06:52:42;5.63;;;4.75;;
22490;SDS011;11412;50.802;4.350;2022-08-01T06:55:08;8.57;;;5.13;;
22490;SDS011;11412;50.802;4.350;2022-08-01T06:57:34;7.50;;;5.22;;
22490;SDS011;11412;50.802;4.350;2022-08-01T07:00:04;5.03;;;4.63;;
22490;SDS011;11412;50.802;4.350;2022-08-01T07:02:35;5.53;;;4.88;;
22490;SDS011;11412;50.802;4.350;2022-08-01T07:05:02;6.63;;;4.40;;
22490;SDS011;11412;50.802;4.350;2022-08-01T07:07:29;8.40;;;5.15;;
22490;SDS011;11412;50.802;4.350;2022-08-01T07:09:55;4.85;;;4.05;;
22490;SDS011;11412;50.802;4.350;2022-08-01T07:12:20;5.28;;;3.67;;
22490;SDS011;11412;50.802;4.350;2022-08-01T07:14:46;4.30;;;3.53;;
22490;SDS011;11412;50.802;4.350;2022-08-01T07:17:12;8.10;;;3.65;;
22490;SDS011;11412;50.802;4.350;2022-08-01T07:19:37;3.53;;;3.22;;
22490;SDS011;11412;50.802;4.350;2022-08-01T07:22:03;3.92;;;3.47;;
22490;SDS011;11412;50.802;4.350;2022-08-01T07:24:29;6.85;;;2.95;;
22490;SDS011;11412;50.802;4.350;2022-08-01T07:26:55;3.80;;;3.45;;
22490;SDS011;11412;50.802;4.350;2022-08-01T07:29:26;3.85;;;3.13;;
22490;SDS011;11412;50.802;4.350;2022-08-01T07:31:52;3.00;;;2.70;;
22490;SDS011;11412;50.802;4.350;2022-08-01T07:34:19;4.10;;;3.28;;
22490;SDS011;11412;50.802;4.350;2022-08-01T07:36:45;3.33;;;2.50;;
22490;SDS011;11412;50.802;4.350;2022-08-01T07:39:11;3.60;;;3.30;;
22490;SDS011;11412;50.802;4.350;2022-08-01T07:41:37;3.03;;;2.70;;
22490;SDS011;11412;50.802;4.350;2022-08-01T07:44:02;2.70;;;2.50;;
22490;SDS011;11412;50.802;4.350;2022-08-01T07:46:28;3.10;;;2.78;;
22490;SDS011;11412;50.802;4.350;2022-08-01T07:48:55;2.88;;;2.67;;
22490;SDS011;11412;50.802;4.350;2022-08-01T07:51:20;3.15;;;2.80;;
22490;SDS011;11412;50.802;4.350;2022-08-01T07:53:46;3.30;;;2.80;;
22490;SDS011;11412;50.802;4.350;2022-08-01T07:56:12;4.10;;;2.72;;
22490;SDS011;11412;50.802;4.350;2022-08-01T07:58:38;3.80;;;3.20;;
22490;SDS011;11412;50.802;4.350;2022-08-01T08:01:03;3.92;;;3.63;;
22490;SDS011;11412;50.802;4.350;2022-08-01T08:03:29;3.60;;;3.30;;
22490;SDS011;11412;50.802;4.350;2022-08-01T08:05:55;4.43;;;4.00;;
22490;SDS011;11412;50.802;4.350;2022-08-01T08:08:21;3.55;;;3.25;;
22490;SDS011;11412;50.802;4.350;2022-08-01T08:10:47;3.72;;;3.30;;
22490;SDS011;11412;50.802;4.350;2022-08-01T08:13:13;3.20;;;2.97;;
22490;SDS011;11412;50.802;4.350;2022-08-01T08:15:38;2.47;;;2.38;;
22490;SDS011;11412;50.802;4.350;2022-08-01T08:18:04;3.15;;;2.95;;
22490;SDS011;11412;50.802;4.350;2022-08-01T08:20:30;2.63;;;2.42;;
22490;SDS011;11412;50.802;4.350;2022-08-01T08:22:56;3.50;;;2.38;;
22490;SDS011;11412;50.802;4.350;2022-08-01T08:25:25;2.88;;;2.67;;
22490;SDS011;11412;50.802;4.350;2022-08-01T08:27:51;2.38;;;2.28;;
22490;SDS011;11412;50.802;4.350;2022-08-01T08:30:17;2.15;;;2.00;;
22490;SDS011;11412;50.802;4.350;2022-08-01T08:32:43;2.95;;;2.13;;
22490;SDS011;11412;50.802;4.350;2022-08-01T08:35:09;2.30;;;2.10;;
22490;SDS011;11412;50.802;4.350;2022-08-01T08:37:35;2.35;;;1.85;;
22490;SDS011;11412;50.802;4.350;2022-08-01T08:40:02;1.58;;;1.50;;
22490;SDS011;11412;50.802;4.350;2022-08-01T08:42:29;2.45;;;1.63;;
22490;SDS011;11412;50.802;4.350;2022-08-01T08:44:55;1.60;;;1.50;;
22490;SDS011;11412;50.802;4.350;2022-08-01T08:47:21;4.57;;;1.38;;
22490;SDS011;11412;50.802;4.350;2022-08-01T08:49:48;1.15;;;1.10;;
22490;SDS011;11412;50.802;4.350;2022-08-01T08:52:17;1.10;;;1.10;;
22490;SDS011;11412;50.802;4.350;2022-08-01T08:54:44;1.50;;;1.40;;
22490;SDS011;11412;50.802;4.350;2022-08-01T08:57:13;2.08;;;1.45;;
22490;SDS011;11412;50.802;4.350;2022-08-01T08:59:39;1.58;;;1.48;;
22490;SDS011;11412;50.802;4.350;2022-08-01T09:02:05;1.60;;;1.50;;
22490;SDS011;11412;50.802;4.350;2022-08-01T09:04:34;2.00;;;1.90;;
22490;SDS011;11412;50.802;4.350;2022-08-01T09:07:01;1.35;;;1.25;;
22490;SDS011;11412;50.802;4.350;2022-08-01T09:09:28;1.38;;;1.10;;
22490;SDS011;11412;50.802;4.350;2022-08-01T09:11:54;1.88;;;1.40;;
22490;SDS011;11412;50.802;4.350;2022-08-01T09:14:20;1.20;;;1.10;;
22490;SDS011;11412;50.802;4.350;2022-08-01T09:17:02;2.40;;;2.17;;
22490;SDS011;11412;50.802;4.350;2022-08-01T09:19:37;2.10;;;2.00;;
22490;SDS011;11412;50.802;4.350;2022-08-01T09:22:05;2.70;;;2.38;;
22490;SDS011;11412;50.802;4.350;2022-08-01T09:24:33;2.35;;;1.98;;
22490;SDS011;11412;50.802;4.350;2022-08-01T09:26:59;2.30;;;2.20;;
22490;SDS011;11412;50.802;4.350;2022-08-01T09:29:30;2.47;;;2.28;;
22490;SDS011;11412;50.802;4.350;2022-08-01T09:31:58;3.10;;;1.70;;
22490;SDS011;11412;50.802;4.350;2022-08-01T09:34:30;2.08;;;1.85;;
22490;SDS011;11412;50.802;4.350;2022-08-01T09:37:00;2.97;;;1.92;;
22490;SDS011;11412;50.802;4.350;2022-08-01T09:39:28;2.00;;;1.80;;
22490;SDS011;11412;50.802;4.350;2022-08-01T09:41:56;2.35;;;2.00;;
22490;SDS011;11412;50.802;4.350;2022-08-01T09:44:39;2.30;;;1.70;;
22490;SDS011;11412;50.802;4.350;2022-08-01T09:47:06;1.52;;;1.42;;
22490;SDS011;11412;50.802;4.350;2022-08-01T09:49:33;2.00;;;1.90;;
22490;SDS011;11412;50.802;4.350;2022-08-01T09:55:07;1.80;;;1.70;;
22490;SDS011;11412;50.802;4.350;2022-08-01T09:57:32;4.20;;;1.90;;
22490;SDS011;11412;50.802;4.350;2022-08-01T09:59:59;4.82;;;2.15;;
22490;SDS011;11412;50.802;4.350;2022-08-01T10:02:35;2.40;;;1.95;;
22490;SDS011;11412;50.802;4.350;2022-08-01T10:05:03;1.90;;;1.80;;
22490;SDS011;11412;50.802;4.350;2022-08-01T10:07:31;2.05;;;1.83;;
22490;SDS011;11412;50.802;4.350;2022-08-01T10:10:08;1.95;;;1.60;;
22490;SDS011;11412;50.802;4.350;2022-08-01T10:12:38;2.03;;;1.92;;
22490;SDS011;11412;50.802;4.350;2022-08-01T10:15:06;1.70;;;1.60;;
22490;SDS011;11412;50.802;4.350;2022-08-01T10:17:33;4.20;;;1.38;;
22490;SDS011;11412;50.802;4.350;2022-08-01T10:20:02;3.60;;;1.80;;
22490;SDS011;11412;50.802;4.350;2022-08-01T10:22:29;2.08;;;1.83;;
22490;SDS011;11412;50.802;4.350;2022-08-01T10:24:56;2.20;;;1.05;;
22490;SDS011;11412;50.802;4.350;2022-08-01T10:27:26;1.98;;;1.42;;
22490;SDS011;11412;50.802;4.350;2022-08-01T10:29:55;1.10;;;1.00;;
22490;SDS011;11412;50.802;4.350;2022-08-01T10:32:25;1.02;;;0.90;;
22490;SDS011;11412;50.802;4.350;2022-08-01T10:34:51;1.02;;;0.93;;
22490;SDS011;11412;50.802;4.350;2022-08-01T10:37:19;0.80;;;0.80;;
22490;SDS011;11412;50.802;4.350;2022-08-01T10:39:45;1.13;;;1.00;;
22490;SDS011;11412;50.802;4.350;2022-08-01T10:42:11;3.15;;;0.90;;
22490;SDS011;11412;50.802;4.350;2022-08-01T10:44:37;1.73;;;0.60;;
22490;SDS011;11412;50.802;4.350;2022-08-01T10:47:04;6.97;;;0.95;;
22490;SDS011;11412;50.802;4.350;2022-08-01T10:49:51;0.63;;;0.63;;
22490;SDS011;11412;50.802;4.350;2022-08-01T10:52:23;2.90;;;0.82;;
22490;SDS011;11412;50.802;4.350;2022-08-01T10:54:49;1.85;;;0.90;;
22490;SDS011;11412;50.802;4.350;2022-08-01T10:57:43;0.98;;;0.98;;
22490;SDS011;11412;50.802;4.350;2022-08-01T11:00:21;2.60;;;1.00;;
22490;SDS011;11412;50.802;4.350;2022-08-01T11:03:01;3.13;;;1.00;;
22490;SDS011;11412;50.802;4.350;2022-08-01T11:05:32;1.00;;;0.50;;
22490;SDS011;11412;50.802;4.350;2022-08-01T11:11:02;3.38;;;1.00;;
22490;SDS011;11412;50.802;4.350;2022-08-01T11:18:56;1.90;;;0.80;;
22490;SDS011;11412;50.802;4.350;2022-08-01T11:21:22;0.77;;;0.70;;
22490;SDS011;11412;50.802;4.350;2022-08-01T11:24:07;0.70;;;0.70;;
22490;SDS011;11412;50.802;4.350;2022-08-01T11:26:33;0.60;;;0.50;;
22490;SDS011;11412;50.802;4.350;2022-08-01T11:29:12;0.88;;;0.80;;
22490;SDS011;11412;50.802;4.350;2022-08-01T11:31:39;2.00;;;0.70;;
22490;SDS011;11412;50.802;4.350;2022-08-01T11:34:05;0.65;;;0.52;;
22490;SDS011;11412;50.802;4.350;2022-08-01T11:36:31;0.60;;;0.60;;
22490;SDS011;11412;50.802;4.350;2022-08-01T11:41:26;2.42;;;0.50;;
22490;SDS011;11412;50.802;4.350;2022-08-01T11:43:57;2.97;;;0.80;;
22490;SDS011;11412;50.802;4.350;2022-08-01T11:54:32;1.25;;;0.52;;
22490;SDS011;11412;50.802;4.350;2022-08-01T11:57:08;0.75;;;0.55;;
22490;SDS011;11412;50.802;4.350;2022-08-01T11:59:39;0.88;;;0.60;;
22490;SDS011;11412;50.802;4.350;2022-08-01T12:04:54;0.63;;;0.63;;
22490;SDS011;11412;50.802;4.350;2022-08-01T12:07:25;0.40;;;0.40;;
22490;SDS011;11412;50.802;4.350;2022-08-01T12:12:49;0.57;;;0.50;;
22490;SDS011;11412;50.802;4.350;2022-08-01T12:15:17;1.30;;;0.82;;
22490;SDS011;11412;50.802;4.350;2022-08-01T12:17:48;0.60;;;0.60;;
22490;SDS011;11412;50.802;4.350;2022-08-01T12:20:19;1.73;;;0.60;;
22490;SDS011;11412;50.802;4.350;2022-08-01T12:22:46;0.98;;;0.60;;
22490;SDS011;11412;50.802;4.350;2022-08-01T12:25:14;0.68;;;0.50;;
22490;SDS011;11412;50.802;4.350;2022-08-01T12:27:42;0.60;;;0.60;;
22490;SDS011;11412;50.802;4.350;2022-08-01T12:30:12;1.00;;;0.47;;
22490;SDS011;11412;50.802;4.350;2022-08-01T12:32:40;0.82;;;0.65;;
22490;SDS011;11412;50.802;4.350;2022-08-01T12:35:10;1.00;;;0.60;;
22490;SDS011;11412;50.802;4.350;2022-08-01T12:37:42;1.25;;;0.88;;
22490;SDS011;11412;50.802;4.350;2022-08-01T12:40:21;1.13;;;0.70;;
22490;SDS011;11412;50.802;4.350;2022-08-01T12:42:50;2.20;;;0.40;;
22490;SDS011;11412;50.802;4.350;2022-08-01T12:45:26;2.10;;;0.80;;
22490;SDS011;11412;50.802;4.350;2022-08-01T12:47:55;4.82;;;0.90;;
22490;SDS011;11412;50.802;4.350;2022-08-01T12:50:25;1.52;;;0.50;;
22490;SDS011;11412;50.802;4.350;2022-08-01T12:52:55;1.80;;;0.82;;
22490;SDS011;11412;50.802;4.350;2022-08-01T12:55:23;2.33;;;0.50;;
22490;SDS011;11412;50.802;4.350;2022-08-01T12:57:50;0.98;;;0.40;;
22490;SDS011;11412;50.802;4.350;2022-08-01T13:00:35;1.33;;;0.68;;
22490;SDS011;11412;50.802;4.350;2022-08-01T13:03:06;1.45;;;0.68;;
22490;SDS011;11412;50.802;4.350;2022-08-01T13:11:00;3.25;;;0.75;;
22490;SDS011;11412;50.802;4.350;2022-08-01T13:13:34;1.85;;;0.75;;
22490;SDS011;11412;50.802;4.350;2022-08-01T13:16:05;0.82;;;0.82;;
22490;SDS011;11412;50.802;4.350;2022-08-01T13:18:33;0.73;;;0.73;;
22490;SDS011;11412;50.802;4.350;2022-08-01T13:21:13;0.93;;;0.68;;
22490;SDS011;11412;50.802;4.350;2022-08-01T13:32:13;1.48;;;0.80;;
22490;SDS011;11412;50.802;4.350;2022-08-01T13:34:39;1.48;;;0.80;;
22490;SDS011;11412;50.802;4.350;2022-08-01T13:37:05;1.42;;;0.82;;
22490;SDS011;11412;50.802;4.350;2022-08-01T13:39:30;0.73;;;0.60;;
22490;SDS011;11412;50.802;4.350;2022-08-01T13:42:06;1.42;;;1.00;;
22490;SDS011;11412;50.802;4.350;2022-08-01T13:44:32;2.38;;;0.90;;
22490;SDS011;11412;50.802;4.350;2022-08-01T13:46:58;1.00;;;0.88;;
22490;SDS011;11412;50.802;4.350;2022-08-01T13:49:24;4.63;;;1.00;;
22490;SDS011;11412;50.802;4.350;2022-08-01T13:51:50;3.95;;;0.80;;
22490;SDS011;11412;50.802;4.350;2022-08-01T13:54:16;0.95;;;0.73;;
22490;SDS011;11412;50.802;4.350;2022-08-01T13:56:42;1.00;;;0.80;;
22490;SDS011;11412;50.802;4.350;2022-08-01T13:59:08;1.52;;;0.80;;
22490;SDS011;11412;50.802;4.350;2022-08-01T14:01:33;5.63;;;0.80;;
22490;SDS011;11412;50.802;4.350;2022-08-01T14:04:00;0.60;;;0.60;;
22490;SDS011;11412;50.802;4.350;2022-08-01T14:06:26;2.65;;;0.93;;
22490;SDS011;11412;50.802;4.350;2022-08-01T14:08:52;0.73;;;0.70;;
22490;SDS011;11412;50.802;4.350;2022-08-01T14:11:17;1.33;;;0.70;;
22490;SDS011;11412;50.802;4.350;2022-08-01T14:13:44;3.25;;;0.80;;
22490;SDS011;11412;50.802;4.350;2022-08-01T14:16:09;0.80;;;0.80;;
22490;SDS011;11412;50.802;4.350;2022-08-01T14:18:35;3.22;;;0.70;;
22490;SDS011;11412;50.802;4.350;2022-08-01T14:21:01;1.30;;;1.20;;
22490;SDS011;11412;50.802;4.350;2022-08-01T14:23:27;1.75;;;0.70;;
22490;SDS011;11412;50.802;4.350;2022-08-01T14:25:52;1.42;;;0.70;;
22490;SDS011;11412;50.802;4.350;2022-08-01T14:28:18;1.45;;;1.00;;
22490;SDS011;11412;50.802;4.350;2022-08-01T14:30:44;1.13;;;0.95;;
22490;SDS011;11412;50.802;4.350;2022-08-01T14:33:10;1.13;;;0.63;;
22490;SDS011;11412;50.802;4.350;2022-08-01T14:35:36;1.77;;;0.75;;
22490;SDS011;11412;50.802;4.350;2022-08-01T14:38:02;3.38;;;1.00;;
22490;SDS011;11412;50.802;4.350;2022-08-01T14:40:28;0.98;;;0.85;;
22490;SDS011;11412;50.802;4.350;2022-08-01T14:42:54;0.90;;;0.70;;
22490;SDS011;11412;50.802;4.350;2022-08-01T14:45:20;0.80;;;0.80;;
22490;SDS011;11412;50.802;4.350;2022-08-01T14:47:45;1.35;;;0.63;;
22490;SDS011;11412;50.802;4.350;2022-08-01T14:50:12;4.25;;;1.00;;
22490;SDS011;11412;50.802;4.350;2022-08-01T14:52:39;0.63;;;0.63;;
22490;SDS011;11412;50.802;4.350;2022-08-01T14:55:06;2.75;;;1.05;;
22490;SDS011;11412;50.802;4.350;2022-08-01T14:57:33;2.75;;;0.55;;
22490;SDS011;11412;50.802;4.350;2022-08-01T14:59:59;1.00;;;0.90;;
22490;SDS011;11412;50.802;4.350;2022-08-01T15:02:25;0.63;;;0.63;;
22490;SDS011;11412;50.802;4.350;2022-08-01T15:04:50;1.15;;;0.85;;
22490;SDS011;11412;50.802;4.350;2022-08-01T15:07:16;0.70;;;0.70;;
22490;SDS011;11412;50.802;4.350;2022-08-01T15:09:43;0.93;;;0.60;;
22490;SDS011;11412;50.802;4.350;2022-08-01T15:12:09;2.47;;;0.90;;
22490;SDS011;11412;50.802;4.350;2022-08-01T15:14:35;1.42;;;0.85;;
22490;SDS011;11412;50.802;4.350;2022-08-01T15:17:13;1.60;;;0.88;;
22490;SDS011;11412;50.802;4.350;2022-08-01T15:19:46;1.85;;;0.90;;
22490;SDS011;11412;50.802;4.350;2022-08-01T15:22:12;0.85;;;0.70;;
22490;SDS011;11412;50.802;4.350;2022-08-01T15:24:38;3.83;;;1.00;;
22490;SDS011;11412;50.802;4.350;2022-08-01T15:27:04;0.70;;;0.70;;
22490;SDS011;11412;50.802;4.350;2022-08-01T15:29:30;0.70;;;0.70;;
22490;SDS011;11412;50.802;4.350;2022-08-01T15:31:56;1.58;;;0.90;;
22490;SDS011;11412;50.802;4.350;2022-08-01T15:34:23;0.70;;;0.70;;
22490;SDS011;11412;50.802;4.350;2022-08-01T15:36:48;1.20;;;0.65;;
22490;SDS011;11412;50.802;4.350;2022-08-01T15:39:14;6.70;;;0.60;;